Historique des mesures à Cassis (13260), France
Quotidien Résumé Fevrier 3, 2018 Unités:  Métrique    US   Métrique/US
« Précédent (Jour)
Suivant (Jour) »
Quotidien Hebdomadaire Mensuel Annuel Période au choix
  Maximum: Minimum: Moyenne:
Température: TemperatureC °C 5.1 °C 6.5 °C
Point de rosée: DewpointC °C -3.2 °C -1.6 °C
Humidité: Humidity % 45 % 53 %
Vitesse du vent: 0 km/h 6.4 km/h 28.6 km/h
Rafales: 0 km/h - -
Vent:- - WSW
Pression: PressurehPa hPa 997.5 hPa -
Précipitations: 0.0 mm    
Historical Graphs
 
 
Mesures pour : Fevrier 3, 2018
Heure Temperature Point de rosée Pression Vent Vitesse du vent Rafales Humidité Pluie (par heure) Conditions
TemperatureC °C DewpointC °C PressurehPa hPa Calm     Humidity % HourlyPrecipMM mm SoftwareType W/m2
00:12 6.1 °C -1.6 °C 999.2 hPa North 21.6 km/h 22.5 km/h 58 % 0.0 mm open2300-1.11 W/m2
01:12 5.8 °C -1.4 °C 998.9 hPa NW 23.8 km/h 37 km/h 60 % 0.0 mm open2300-1.11 W/m2
02:12 5.6 °C -1.8 °C 998.5 hPa North 8.9 km/h 36.5 km/h 59 % 0.0 mm open2300-1.11 W/m2
03:12 5.5 °C -2.2 °C 997.5 hPa NNW 30.1 km/h 41.2 km/h 58 % 0.0 mm open2300-1.11 W/m2
04:12 5.3 °C -2.6 °C 997.9 hPa NW 40.7 km/h 40.7 km/h 57 % 0.0 mm open2300-1.11 W/m2
05:12 5.3 °C -2.6 °C 997.9 hPa WNW 34.1 km/h 52 km/h 57 % 0.0 mm open2300-1.11 W/m2
06:12 5.1 °C -2.0 °C 998.5 hPa WNW 51 km/h 51 km/h 60 % 0.0 mm open2300-1.11 W/m2
07:12 5.1 °C -1.6 °C 999.2 hPa NW 56.2 km/h 75.8 km/h 62 % 0.0 mm open2300-1.11 W/m2
08:12 5.1 °C -0.9 °C 999.9 hPa NNW 36 km/h 36 km/h 65 % 0.0 mm open2300-1.11 W/m2
09:12 5.6 °C -0.5 °C 1000.9 hPa NW 28.5 km/h 45.9 km/h 65 % 0.0 mm open2300-1.11 W/m2
10:12 6.1 °C -0.2 °C 1000.9 hPa NNW 31.4 km/h 35.2 km/h 64 % 0.0 mm open2300-1.11 W/m2
11:12 7.1 °C -0.1 °C 1001.2 hPa NW 33.2 km/h 39.4 km/h 60 % 0.0 mm open2300-1.11 W/m2
12:12 8.3 °C 0.2 °C 1001.6 hPa NW 34.8 km/h 34.8 km/h 57 % 0.0 mm open2300-1.11 W/m2
13:12 8.9 °C 0.1 °C 1001.2 hPa NNE 23.8 km/h 23.8 km/h 54 % 0.0 mm open2300-1.11 W/m2
14:12 8.9 °C -1.0 °C 1001.2 hPa NNW 36 km/h 68.4 km/h 50 % 0.0 mm open2300-1.11 W/m2
15:12 9.2 °C -1.3 °C 1001.6 hPa North 17.4 km/h 43.5 km/h 48 % 0.0 mm open2300-1.11 W/m2
16:12 8.8 °C -1.4 °C 1001.2 hPa West 33.6 km/h 36.5 km/h 49 % 0.0 mm open2300-1.11 W/m2
17:12 8.4 °C -2.9 °C 1001.9 hPa WNW 44.6 km/h 44.6 km/h 45 % 0.0 mm open2300-1.11 W/m2
18:12 7.8 °C -3.2 °C 1001.9 hPa NW 9.8 km/h 29.5 km/h 46 % 0.0 mm open2300-1.11 W/m2
19:12 7.3 °C -3.1 °C 1002.3 hPa NW 23.8 km/h 36.5 km/h 48 % 0.0 mm open2300-1.11 W/m2
20:12 6.9 °C -3.1 °C 1002.9 hPa NNW 31.9 km/h 31.9 km/h 49 % 0.0 mm open2300-1.11 W/m2
21:12 6.9 °C -2.8 °C 1003.6 hPa North 6.4 km/h 6.4 km/h 50 % 0.0 mm open2300-1.11 W/m2
Observations météo à CASSIS
WU-History script by Weather Underground - 1 mb